• Join FlightAware (Why Join?)
  • Login
  • US Flag 
11:29AM EDT


 

Airport Tracker/Info


-or-


 

Live Flight TrackerFlight Track Log ✈ DAL268 ✈ 10-May-2013 ✈ KJFK - LLBG / TLV

Flight Track Log - Related Links

Times and Time Zones

All times are in EDT time to prevent confusion due to time zone crossing. See the DAL268 flight status page for this flight to view local times or setup timezone preferences in your user account.

Time Position Orientation Groundspeed Altitude Reporting Facility
EDT Latitude Longitude Course Direction KTS MPH feet Rate Location/Type
11:47PM 40.5980 -73.7910 208° Southwest 176 203 500  Level FlightAware
11:47PM 40.5780 -73.8070 211° Southwest 181 208 1,700 1,860 Climbing FlightAware
11:48PM 40.5530 -73.8230 206° Southwest 214 246 2,400 1,200 Climbing FlightAware
11:48PM 40.5280 -73.8160 168° South 242 278 2,800 1,200 Climbing FlightAware
11:48PM 40.5140 -73.7990 137° Southeast 261 300 3,200 1,380 Climbing FlightAware
11:49PM 40.5040 -73.7790 123° Southeast 283 326 3,500 1,380 Climbing FlightAware
11:49PM 40.5000 -73.7510 101° East 302 348 3,900 2,460 Climbing FlightAware
11:49PM 40.5011 -73.7197 87° East 304 350 4,800 3,120 Climbing FlightAware ADS-B
11:49PM 40.5024 -73.7138 74° East 307 353 4,900 1,500 Climbing FlightAware ADS-B
11:49PM 40.5048 -73.7045 71° East 312 359 5,000 1,260 Climbing FlightAware ADS-B
11:49PM 40.5104 -73.6891 64° Northeast 322 371 5,200 1,500 Climbing FlightAware ADS-B
11:49PM 40.5163 -73.6777 56° Northeast 326 375 5,400 2,100 Climbing FlightAware ADS-B
11:50PM 40.5230 -73.6676 49° Northeast 327 376 5,700 2,400 Climbing FlightAware ADS-B
11:50PM 40.5323 -73.6567 42° Northeast 327 376 6,000 2,580 Climbing FlightAware ADS-B
11:50PM 40.5413 -73.6464 41° Northeast 327 376 6,400 2,820 Climbing FlightAware ADS-B
11:50PM 40.5558 -73.6280 44° Northeast 330 380 7,000 2,460 Climbing FlightAware ADS-B
11:50PM 40.5725 -73.6053 46° Northeast 331 381 7,600 2,460 Climbing FlightAware ADS-B
11:51PM 40.5918 -73.5793 46° Northeast 335 386 8,400 2,460 Climbing FlightAware ADS-B
11:51PM 40.5990 -73.5716 39° Northeast 336 387 8,600 1,980 Climbing FlightAware ADS-B
11:51PM 40.6030 -73.5679 35° Northeast 337 388 8,700 2,220 Climbing FlightAware ADS-B
11:51PM 40.6095 -73.5626 32° Northeast 336 387 8,900 2,220 Climbing FlightAware ADS-B
11:51PM 40.6137 -73.5593 31° Northeast 336 387 9,000 2,700 Climbing FlightAware ADS-B
11:51PM 40.6248 -73.5524 25° Northeast 337 388 9,400 2,400 Climbing FlightAware ADS-B
11:51PM 40.6355 -73.5472 20° North 338 389 9,600 1,980 Climbing FlightAware ADS-B
11:51PM 40.6517 -73.5421 13° North 338 389 10,000 1,680 Climbing FlightAware ADS-B
11:52PM 40.7002 -73.5297 11° North 356 410 10,800 1,380 Climbing FlightAware ADS-B
11:53PM 40.7830 -73.5080 11° North 392 451 11,900 1,260 Climbing FlightAware
11:53PM 40.8348 -73.4954 10° North 357 411 12,400 1,380 Climbing FlightAware ADS-B
11:54PM 40.8941 -73.4803 11° North 430 495 13,200 1,740 Climbing FlightAware ADS-B
11:55PM 41.0290 -73.4450 11° North 447 514 15,300 1,800 Climbing FlightAware
11:56PM 41.1200 -73.4210 11° North 459 528 16,700 1,680 Climbing FlightAware
11:56PM 41.2040 -73.3980 12° North 471 542 17,700 1,320 Climbing FlightAware
11:57PM 41.2744 -73.3655 19° North 487 560 18,700 1,560 Climbing FlightAware ADS-B
11:58PM 41.3490 -73.2770 42° Northeast 493 567 19,800 1,800 Climbing FlightAware
11:58PM 41.4160 -73.1890 45° Northeast 498 573 20,900 1,560 Climbing FlightAware
11:59PM 41.4860 -73.0970 45° Northeast 505 581 21,900 1,500 Climbing FlightAware
12:00AM 41.5793 -72.9767 44° Northeast 511 588 23,300 1,380 Climbing FlightAware ADS-B
12:00AM 41.6518 -72.8844 44° Northeast 516 594 24,200 1,200 Climbing FlightAware ADS-B
12:01AM 41.7047 -72.8169 44° Northeast 522 601 24,800 1,020 Climbing FlightAware ADS-B
12:03AM 41.8890 -72.5800 44° Northeast 532 612 26,700 1,020 Climbing FlightAware
12:04AM 41.9430 -72.5110 44° Northeast 27,500 1,080 Climbing FlightAware
12:04AM 42.0500 -72.3720 44° Northeast 543 625 28,300 1,320 Climbing FlightAware
12:05AM 42.1440 -72.2480 44° Northeast 537 618 29,500 1,320 Climbing FlightAware
12:06AM 42.2150 -72.1560 44° Northeast 534 615 30,300 1,080 Climbing FlightAware
12:06AM 42.2850 -72.0630 44° Northeast 532 612 31,000 1,020 Climbing FlightAware
12:07AM 42.3660 -71.9570 44° Northeast 532 612 31,800 660 Climbing FlightAware
12:08AM 42.4370 -71.8630 44° Northeast 533 613 32,000 120 Climbing FlightAware
12:09AM 42.5150 -71.7600 44° Northeast 532 612 32,000  Level FlightAware
12:09AM 42.5850 -71.6660 45° Northeast 531 611 32,000  Level FlightAware
12:10AM 42.6560 -71.5700 45° Northeast 531 611 32,000  Level FlightAware
12:11AM 42.7350 -71.4610 45° Northeast 532 612 32,000  Level FlightAware
12:11AM 42.8040 -71.3680 45° Northeast 534 615 32,000  Level FlightAware
12:12AM 42.8820 -71.2610 45° Northeast 535 616 32,000  Level FlightAware
12:13AM 42.9520 -71.1660 45° Northeast 535 616 32,000  Level FlightAware
12:13AM 43.0230 -71.0700 45° Northeast 535 616 32,000  Level FlightAware
12:14AM 43.1020 -70.9610 45° Northeast 534 615 32,000  Level FlightAware
12:15AM 43.1720 -70.8650 45° Northeast 533 613 32,000  Level FlightAware
12:16AM 43.2420 -70.7670 46° Northeast 534 615 32,000  Level FlightAware
12:16AM 43.3170 -70.6620 46° Northeast 533 613 32,000  Level FlightAware
12:17AM 43.3860 -70.5650 46° Northeast 532 612 32,000  Level FlightAware
12:18AM 43.4650 -70.4540 46° Northeast 530 610 32,000  Level FlightAware
12:18AM 43.5340 -70.3570 46° Northeast 528 608 32,000  Level FlightAware
12:19AM 43.6080 -70.2510 46° Northeast 529 609 32,000  Level FlightAware
12:20AM 43.6780 -70.1520 46° Northeast 529 609 32,000  Level FlightAware
12:20AM 43.7450 -70.0550 46° Northeast 529 609 32,000  Level FlightAware
12:21AM 43.8230 -69.9430 46° Northeast 529 609 32,000  Level FlightAware
12:22AM 43.8810 -69.8590 46° Northeast 527 606 32,000  Level FlightAware
12:22AM 43.9450 -69.7650 47° Northeast 525 604 32,000  Level FlightAware
12:23AM 44.0130 -69.6660 46° Northeast 523 602 32,000  Level FlightAware
12:24AM 44.0980 -69.5420 46° Northeast 524 603 32,000  Level FlightAware
12:25AM 44.1710 -69.4350 46° Northeast 524 603 32,000  Level FlightAware
12:26AM 44.2630 -69.2980 47° Northeast 525 604 32,000  Level FlightAware
12:26AM 44.3310 -69.1970 47° Northeast 524 603 32,000  Level FlightAware
12:27AM 44.4050 -69.0860 47° Northeast 524 603 32,000  Level FlightAware
12:28AM 44.4720 -68.9850 47° Northeast 524 603 32,000  Level FlightAware
12:28AM 44.5480 -68.8710 47° Northeast 522 601 32,000  Level FlightAware
12:29AM 44.6140 -68.7730 47° Northeast 522 601 32,000  Level FlightAware
12:30AM 44.6790 -68.6730 48° Northeast 522 601 32,000  Level FlightAware
12:31AM 44.7520 -68.5610 47° Northeast 523 602 32,000  Level FlightAware
12:31AM 44.8170 -68.4610 47° Northeast 522 601 32,000  Level FlightAware
12:32AM 44.8890 -68.3510 47° Northeast 523 602 32,000  Level FlightAware
12:33AM 44.9540 -68.2500 48° Northeast 522 601 32,000  Level FlightAware
12:33AM 45.0190 -68.1490 48° Northeast 522 601 32,000  Level FlightAware
12:34AM 45.0940 -68.0320 48° Northeast 523 602 32,000  Level FlightAware
12:35AM 45.1570 -67.9330 48° Northeast 524 603 32,000  Level FlightAware
12:35AM 45.2280 -67.8210 48° Northeast 518 596 32,000  Level FlightAware
12:36AM 45.2920 -67.7190 48° Northeast 517 595 32,000 -120 Level FlightAware
12:37AM 45.3540 -67.6200 48° Northeast 510 587 31,900 -900 Descending FlightAware
12:38AM 45.4270 -67.5030 48° Northeast 514 592 30,800 -1,740 Descending FlightAware
12:38AM 45.4910 -67.4010 48° Northeast 524 603 29,500 -1,380 Descending FlightAware
12:39AM 45.5570 -67.2950 48° Northeast 524 603 29,000 -360 Descending FlightAware
12:40AM 45.6280 -67.1780 49° Northeast 521 600 29,000  Level FlightAware
12:40AM 45.6940 -67.0720 48° Northeast 520 598 29,000  Level FlightAware
12:41AM 45.7660 -66.9560 48° Northeast 520 598 29,000  Level FlightAware
12:42AM 45.8230 -66.8620 49° Northeast 520 598 29,000  Level FlightAware
12:42AM 45.8990 -66.7390 48° Northeast 525 604 29,000  Level FlightAware
12:43AM 45.9700 -66.6220 49° Northeast 524 603 29,000  Level FlightAware
12:44AM 46.0540 -66.4820 49° Northeast 524 603 29,000  Level FlightAware
12:45AM 46.1080 -66.3930 49° Northeast 524 603 29,000  Level FlightAware
12:45AM 46.1620 -66.3030 49° Northeast 524 603 29,000  Level FlightAware
12:46AM 46.2160 -66.2130 49° Northeast 524 603 29,000  Level FlightAware
12:47AM 46.2840 -66.1010 49° Northeast 524 603 29,000  Level FlightAware
12:48AM 46.3380 -66.0110 49° Northeast 524 603 29,000  Level FlightAware
12:48AM 46.4833 -65.8000 49° Northeast 520 598 29,000  Level Moncton Center
12:49AM 46.5833 -65.6333 49° Northeast 530 610 29,000  Level Moncton Center
12:50AM 46.6667 -65.5000 48° Northeast 520 598 29,000  Level Moncton Center
12:51AM 46.7667 -65.3333 49° Northeast 530 610 29,000  Level Moncton Center
12:52AM 46.8667 -65.1500 51° Northeast 530 610 29,000  Level Moncton Center
12:53AM 46.9667 -65.0167 42° Northeast 520 598 29,000  Level Moncton Center
12:54AM 47.0667 -64.8333 51° Northeast 520 598 29,000  Level Moncton Center
12:55AM 47.1500 -64.6667 54° Northeast 520 598 29,000  Level Moncton Center
12:56AM 47.2500 -64.5000 48° Northeast 520 598 29,000  Level Moncton Center
12:57AM 47.3333 -64.3500 51° Northeast 520 598 29,000  Level Moncton Center
12:58AM 47.4333 -64.2000 45° Northeast 520 598 29,000  Level Moncton Center
12:59AM 47.5167 -64.0333 53° Northeast 520 598 29,000  Level Moncton Center
01:00AM 47.6167 -63.8500 51° Northeast 520 598 29,000  Level Moncton Center
01:01AM 47.7167 -63.6833 48° Northeast 520 598 29,000  Level Moncton Center
01:02AM 47.8000 -63.5167 53° Northeast 520 598 29,000  Level Moncton Center
01:03AM 47.9000 -63.3500 48° Northeast 520 598 29,000  Level Moncton Center
01:04AM 47.9833 -63.1667 56° Northeast 520 598 29,000  Level Moncton Center
01:05AM 48.0500 -63.0500 49° Northeast 520 598 29,000  Level Gander Center
01:06AM 48.1500 -62.8333 55° Northeast 520 598 29,000  Level Moncton Center
01:07AM 48.2500 -62.6833 45° Northeast 520 598 29,000  Level Moncton Center
01:08AM 48.3333 -62.5000 56° Northeast 520 598 29,000  Level Moncton Center
01:09AM 48.4333 -62.3500 45° Northeast 510 587 29,000  Level Moncton Center
01:10AM 48.5167 -62.1667 55° Northeast 520 598 29,000  Level Moncton Center
01:11AM 48.6167 -61.9833 50° Northeast 520 598 29,000  Level Moncton Center
01:12AM 48.7000 -61.8333 50° Northeast 510 587 29,000  Level Moncton Center
01:13AM 48.7833 -61.6500 55° Northeast 520 598 29,000  Level Moncton Center
01:14AM 48.8667 -61.5000 50° Northeast 520 598 29,000  Level Moncton Center
01:15AM 48.9667 -61.3167 50° Northeast 510 587 29,000  Level Moncton Center
01:16AM 49.0500 -61.1333 55° Northeast 520 598 29,000  Level Moncton Center
01:17AM 49.1333 -60.9333 57° Northeast 520 598 29,000  Level Moncton Center
01:18AM 49.2167 -60.7833 50° Northeast 520 598 29,000  Level Moncton Center
01:19AM 49.3167 -60.6167 47° Northeast 520 598 29,000  Level Moncton Center
01:20AM 49.3833 -60.4333 61° Northeast 520 598 29,000  Level Moncton Center
01:21AM 49.4833 -60.2500 50° Northeast 520 598 29,000  Level Moncton Center
01:22AM 49.5833 -60.0500 52° Northeast 520 598 29,000  Level Moncton Center
01:23AM 49.6500 -59.9000 55° Northeast 520 598 29,000  Level Moncton Center
01:24AM 49.7333 -59.7333 52° Northeast 520 598 29,000  Level Moncton Center
01:25AM 49.8333 -59.5500 50° Northeast 510 587 29,000  Level Moncton Center
01:26AM 49.9167 -59.3500 57° Northeast 520 598 29,000  Level Moncton Center
01:27AM 50.0000 -59.1667 55° Northeast 520 598 29,000  Level Moncton Center
01:28AM 50.0667 -59.0000 58° Northeast 520 598 29,000  Level Moncton Center
01:29AM 50.1667 -58.8000 52° Northeast 520 598 29,000  Level Moncton Center
01:30AM 50.2333 -58.6167 60° Northeast 520 598 29,000  Level Gander Center
01:31AM 50.3000 -58.4333 60° Northeast 520 598 29,000  Level Gander Center
01:32AM 50.3833 -58.2333 57° Northeast 520 598 29,000  Level Gander Center
01:33AM 50.4667 -58.0500 54° Northeast 520 598 29,000  Level Gander Center
01:34AM 50.5333 -57.8667 60° Northeast 520 598 29,000  Level Gander Center
01:35AM 50.6333 -57.6500 54° Northeast 530 610 29,000  Level Gander Center
01:36AM 50.6833 -57.4500 68° East 530 610 29,000  Level Gander Center
01:37AM 50.7833 -57.2667 49° Northeast 520 598 29,000  Level Gander Center
01:38AM 50.8667 -57.0667 57° Northeast 530 610 29,000  Level Gander Center
01:39AM 50.9333 -56.8500 64° Northeast 520 598 29,000 360 Level Gander Center
01:40AM 51.0167 -56.6500 56° Northeast 530 610 29,800 1,020 Climbing Gander Center
01:41AM 51.0833 -56.4667 60° Northeast 540 621 31,100 1,080 Climbing Gander Center
01:42AM 51.1667 -56.2667 56° Northeast 530 610 32,000 420 Climbing Gander Center
01:43AM 51.2333 -56.0667 62° Northeast 530 610 32,000  Level Gander Center
01:44AM 51.3167 -55.8500 58° Northeast 530 610 32,000  Level Gander Center
01:45AM 51.3667 -55.6833 64° Northeast 530 610 32,000  Level Gander Center
01:46AM 51.4500 -55.4833 56° Northeast 530 610 32,000  Level Gander Center
01:47AM 51.5333 -55.2333 62° Northeast 530 610 32,000  Level Gander Center
01:48AM 51.6333 -55.0333 51° Northeast 540 621 32,000  Level Gander Center
01:49AM 51.6833 -54.8500 66° East 530 610 32,000  Level Gander Center
01:50AM 51.7500 -54.6500 62° Northeast 530 610 32,000  Level Gander Center
01:51AM 51.8500 -54.4000 57° Northeast 540 621 32,000  Level Gander Center
01:52AM 51.9167 -54.2000 62° Northeast 540 621 32,000  Level Gander Center
01:53AM 51.9833 -53.9667 65° Northeast 540 621 32,000  Level Gander Center
01:55AM 52.1333 -53.5667 58° Northeast 540 621 32,000  Level Gander Center
01:56AM 52.2167 -53.3333 60° Northeast 550 633 32,000  Level Gander Center
01:57AM 52.2667 -53.1000 71° East 550 633 32,000  Level Gander Center
01:58AM 52.2167 -53.3667 68° East 562 647 32,000  Level ETMS Enhanced Traffic Management System
01:58AM 52.3333 -52.8667 68° East 550 633 32,000  Level Gander Center
01:59AM 52.3833 -52.6667 68° East 550 633 32,000  Level Gander Center
02:00AM 52.4333 -52.3833 74° East 550 633 32,000  Level Gander Center
02:01AM 52.4500 -52.2667 77° East 550 633 32,000  Level Gander Center
02:02AM 52.5167 -52.0000 68° East 540 621 32,000  Level Gander Center
02:04AM 52.6035 -51.6541 67° East  Level FlightAware Approximate
02:10AM 52.9500 -50.1333 68° East 300 345 32,000  Level Gander Center
02:11AM 52.9827 -50.0749 68° East  Level FlightAware Approximate
02:12AM 53.0382 -49.8485 67° East  Level FlightAware Approximate
02:12AM 53.0395 -49.7814 67° East  Level FlightAware Approximate
02:12AM 53.0000 -50.0000 67° East 544 626 32,000  Level ETMS Enhanced Traffic Management System
02:13AM 53.0946 -49.6230 67° East  Level FlightAware Approximate
02:14AM 53.1505 -49.3969 68° East  Level FlightAware Approximate
02:15AM 53.2060 -49.1701 68° East  Level FlightAware Approximate
02:19AM 53.5090 -47.8892 69° East 544 626 32,000  Level FlightAware Transoceanic
02:20AM 53.5632 -47.6516 69° East 544 626 32,000  Level FlightAware Transoceanic
02:21AM 53.6170 -47.4133 69° East 544 626 32,000  Level FlightAware Transoceanic
02:22AM 53.6703 -47.1745 69° East 544 626 32,000  Level FlightAware Transoceanic
02:23AM 53.7231 -46.9351 70° East 544 626 32,000  Level FlightAware Transoceanic
02:24AM 53.7754 -46.6950 70° East 544 626 32,000  Level FlightAware Transoceanic
02:25AM 53.8273 -46.4544 70° East 544 626 32,000  Level FlightAware Transoceanic
02:26AM 53.8786 -46.2132 70° East 544 626 32,000  Level FlightAware Transoceanic
02:27AM 53.9295 -45.9714 70° East 544 626 32,000  Level FlightAware Transoceanic
02:28AM 53.9799 -45.7290 71° East 544 626 32,000  Level FlightAware Transoceanic
02:29AM 54.0298 -45.4860 71° East 544 626 32,000  Level FlightAware Transoceanic
02:30AM 54.0792 -45.2424 71° East 544 626 32,000  Level FlightAware Transoceanic
02:31AM 54.1282 -44.9983 71° East 544 626 32,000  Level FlightAware Transoceanic
02:32AM 54.1766 -44.7536 71° East 544 626 32,000  Level FlightAware Transoceanic
02:33AM 54.2245 -44.5083 72° East 544 626 32,000  Level FlightAware Transoceanic
02:34AM 54.2719 -44.2624 72° East 544 626 32,000  Level FlightAware Transoceanic
02:35AM 54.3189 -44.0160 72° East 544 626 32,000  Level FlightAware Transoceanic
02:36AM 54.3653 -43.7690 72° East 544 626 32,000  Level FlightAware Transoceanic
02:37AM 54.4112 -43.5215 72° East 544 626 32,000  Level FlightAware Transoceanic
02:38AM 54.4566 -43.2734 73° East 544 626 32,000  Level FlightAware Transoceanic
02:39AM 54.5015 -43.0248 73° East 544 626 32,000  Level FlightAware Transoceanic
02:40AM 54.5459 -42.7756 73° East 544 626 32,000  Level FlightAware Transoceanic
02:41AM 54.5898 -42.5259 73° East 544 626 32,000  Level FlightAware Transoceanic
02:42AM 54.6332 -42.2756 73° East 544 626 32,000  Level FlightAware Transoceanic
02:43AM 54.6760 -42.0248 74° East 544 626 32,000  Level FlightAware Transoceanic
02:44AM 54.7184 -41.7735 74° East 544 626 32,000  Level FlightAware Transoceanic
02:45AM 54.7602 -41.5217 74° East 544 626 32,000  Level FlightAware Transoceanic
02:46AM 54.8015 -41.2693 74° East 544 626 32,000  Level FlightAware Transoceanic
02:47AM 54.8422 -41.0165 74° East 544 626 32,000  Level FlightAware Transoceanic
02:48AM 54.8825 -40.7631 75° East 544 626 32,000  Level FlightAware Transoceanic
02:49AM 54.9222 -40.5092 75° East 544 626 32,000  Level FlightAware Transoceanic
02:50AM 54.9613 -40.2549 75° East 544 626 32,000 960 Level FlightAware Transoceanic
02:51AM 54.9989 -40.0076 75° East  Level FlightAware Approximate
02:51AM 55.0000 -40.0000 86° East 557 641 34,000  Level ETMS Enhanced Traffic Management System
02:52AM 55.0358 -39.7598 75° East  Level FlightAware Approximate
02:53AM 55.0093 -39.7687 86° East  Level FlightAware Approximate
02:54AM 55.0187 -39.5216 86° East  Level FlightAware Approximate
02:55AM 55.0276 -39.2745 86° East  Level FlightAware Approximate
02:56AM 55.0361 -39.0272 86° East  Level FlightAware Approximate
02:57AM 55.0629 -38.1114 87° East 557 641 34,000  Level FlightAware Transoceanic
02:58AM 55.0695 -37.8411 88° East 557 641 34,000  Level FlightAware Transoceanic
02:59AM 55.0755 -37.5708 88° East 557 641 34,000  Level FlightAware Transoceanic
03:00AM 55.0809 -37.3004 88° East 557 641 34,000  Level FlightAware Transoceanic
03:01AM 55.0857 -37.0299 88° East 557 641 34,000  Level FlightAware Transoceanic
03:02AM 55.0899 -36.7594 89° East 557 641 34,000  Level FlightAware Transoceanic
03:03AM 55.0935 -36.4888 89° East 557 641 34,000  Level FlightAware Transoceanic
03:04AM 55.0965 -36.2182 89° East 557 641 34,000  Level FlightAware Transoceanic
03:05AM 55.0989 -35.9475 89° East 557 641 34,000  Level FlightAware Transoceanic
03:06AM 55.1007 -35.6768 89° East 557 641 34,000  Level FlightAware Transoceanic
03:07AM 55.1019 -35.4061 90° East 557 641 34,000  Level FlightAware Transoceanic
03:08AM 55.1025 -35.1354 90° East 557 641 34,000  Level FlightAware Transoceanic
03:09AM 55.1025 -34.8646 90° East 557 641 34,000  Level FlightAware Transoceanic
03:10AM 55.1019 -34.5939 90° East 557 641 34,000  Level FlightAware Transoceanic
03:11AM 55.1007 -34.3232 91° East 557 641 34,000  Level FlightAware Transoceanic
03:12AM 55.0989 -34.0525 91° East 557 641 34,000  Level FlightAware Transoceanic
03:13AM 55.0965 -33.7818 91° East 557 641 34,000  Level FlightAware Transoceanic
03:14AM 55.0935 -33.5112 91° East 557 641 34,000  Level FlightAware Transoceanic
03:15AM 55.0899 -33.2406 91° East 557 641 34,000  Level FlightAware Transoceanic
03:16AM 55.0857 -32.9701 92° East 557 641 34,000  Level FlightAware Transoceanic
03:17AM 55.0809 -32.6996 92° East 557 641 34,000  Level FlightAware Transoceanic
03:18AM 55.0755 -32.4292 92° East 557 641 34,000  Level FlightAware Transoceanic
03:19AM 55.0695 -32.1589 92° East 557 641 34,000  Level FlightAware Transoceanic
03:20AM 55.0629 -31.8886 93° East 557 641 34,000  Level FlightAware Transoceanic
03:21AM 55.0557 -31.6185 93° East 557 641 34,000  Level FlightAware Transoceanic
03:22AM 55.0479 -31.3484 93° East 557 641 34,000  Level FlightAware Transoceanic
03:23AM 55.0395 -31.0785 93° East 557 641 34,000  Level FlightAware Transoceanic
03:24AM 55.0305 -30.8087 93° East 557 641 34,000  Level FlightAware Transoceanic
03:25AM 55.0210 -30.5390 94° East 557 641 34,000  Level FlightAware Transoceanic
03:26AM 55.0108 -30.2694 94° East 557 641 34,000  Level FlightAware Transoceanic
03:27AM 55.0009 -30.0225 94° East  Level FlightAware Approximate
03:28AM 54.9906 -29.7756 94° East  Level FlightAware Approximate
03:28AM 55.0000 -30.0000 105° East 544 626 34,000  Level ETMS Enhanced Traffic Management System
03:29AM 54.9704 -29.8043 105° East  Level FlightAware Approximate
03:30AM 54.9337 -29.5655 105° East  Level FlightAware Approximate
03:31AM 54.8966 -29.3271 105° East  Level FlightAware Approximate
03:32AM 54.8591 -29.0891 105° East  Level FlightAware Approximate
03:33AM 54.8210 -28.8516 105° East  Level FlightAware Approximate
03:34AM 54.7825 -28.6145 106° East  Level FlightAware Approximate
03:35AM 54.6760 -27.9752 106° East 544 626 34,000  Level FlightAware Transoceanic
03:36AM 54.6332 -27.7244 107° East 544 626 34,000  Level FlightAware Transoceanic
03:37AM 54.5898 -27.4741 107° East 544 626 34,000  Level FlightAware Transoceanic
03:38AM 54.5459 -27.2244 107° East 544 626 34,000  Level FlightAware Transoceanic
03:39AM 54.5015 -26.9752 107° East 544 626 34,000  Level FlightAware Transoceanic
03:40AM 54.4566 -26.7266 107° East 544 626 34,000  Level FlightAware Transoceanic
03:41AM 54.4112 -26.4785 108° East 544 626 34,000  Level FlightAware Transoceanic
03:42AM 54.3653 -26.2310 108° East 544 626 34,000  Level FlightAware Transoceanic
03:43AM 54.3189 -25.9840 108° East 544 626 34,000  Level FlightAware Transoceanic
03:44AM 54.2719 -25.7376 108° East 544 626 34,000  Level FlightAware Transoceanic
03:45AM 54.2245 -25.4917 108° East 544 626 34,000  Level FlightAware Transoceanic
03:46AM 54.1766 -25.2464 109° East 544 626 34,000  Level FlightAware Transoceanic
03:47AM 54.1282 -25.0017 109° East 544 626 34,000  Level FlightAware Transoceanic
03:48AM 54.0792 -24.7576 109° East 544 626 34,000  Level FlightAware Transoceanic
03:49AM 54.0298 -24.5140 109° East 544 626 34,000  Level FlightAware Transoceanic
03:50AM 53.9799 -24.2710 109° East 544 626 34,000  Level FlightAware Transoceanic
03:51AM 53.9295 -24.0286 110° East 544 626 34,000  Level FlightAware Transoceanic
03:52AM 53.8786 -23.7868 110° East 544 626 34,000  Level FlightAware Transoceanic
03:53AM 53.8273 -23.5456 110° East 544 626 34,000  Level FlightAware Transoceanic
03:54AM 53.7754 -23.3050 110° East 544 626 34,000  Level FlightAware Transoceanic
03:55AM 53.7231 -23.0649 110° East 544 626 34,000  Level FlightAware Transoceanic
03:56AM 53.6703 -22.8255 111° Southeast 544 626 34,000  Level FlightAware Transoceanic
03:57AM 53.6170 -22.5867 111° Southeast 544 626 34,000  Level FlightAware Transoceanic
03:58AM 53.5632 -22.3484 111° Southeast 544 626 34,000  Level FlightAware Transoceanic
03:59AM 53.5090 -22.1108 111° Southeast 544 626 34,000  Level FlightAware Transoceanic
04:00AM 53.4543 -21.8738 111° Southeast 544 626 34,000  Level FlightAware Transoceanic
04:01AM 53.3991 -21.6374 111° Southeast 544 626 34,000  Level FlightAware Transoceanic
04:02AM 53.3435 -21.4016 112° Southeast 544 626 34,000  Level FlightAware Transoceanic
04:03AM 53.2874 -21.1665 112° Southeast 544 626 34,000  Level FlightAware Transoceanic
04:04AM 53.2308 -20.9319 112° Southeast 544 626 34,000  Level FlightAware Transoceanic
04:05AM 53.1738 -20.6980 112° Southeast 544 626 34,000  Level FlightAware Transoceanic
04:06AM 53.1163 -20.4647 112° Southeast 544 626 34,000  Level FlightAware Transoceanic
04:07AM 53.0584 -20.2320 113° Southeast 544 626 34,000  Level FlightAware Transoceanic
04:08AM 53.0036 -20.0143 113° Southeast  Level FlightAware Approximate
04:09AM 52.9484 -19.7971 113° Southeast  Level FlightAware Approximate
04:10AM 52.9563 -19.8084 111° Southeast  Level FlightAware Approximate
04:11AM 52.9057 -19.5884 111° Southeast  Level FlightAware Approximate
04:12AM 52.8547 -19.3688 111° Southeast  Level FlightAware Approximate
04:13AM 52.8033 -19.1498 111° Southeast  Level FlightAware Approximate
04:14AM 52.7514 -18.9313 111° Southeast  Level FlightAware Approximate
04:15AM 52.6992 -18.7134 111° Southeast  Level FlightAware Approximate
04:16AM 52.6487 -18.4946 111° Southeast  Level FlightAware Approximate
04:17AM 52.5977 -18.2763 111° Southeast  Level FlightAware Approximate
04:18AM 52.5463 -18.0585 111° Southeast  Level FlightAware Approximate
04:19AM 52.4946 -17.8413 111° Southeast  Level FlightAware Approximate
04:20AM 52.4424 -17.6246 111° Southeast  Level FlightAware Approximate
04:21AM 52.3896 -17.4085 112° Southeast  Level FlightAware Approximate
04:22AM 52.3353 -17.1937 112° Southeast  Level FlightAware Approximate
04:23AM 52.2805 -16.9795 113° Southeast  Level FlightAware Approximate
04:24AM 52.2254 -16.7658 113° Southeast  Level FlightAware Approximate
04:25AM 52.1700 -16.5525 113° Southeast  Level FlightAware Approximate
04:26AM 52.1141 -16.3399 113° Southeast  Level FlightAware Approximate
04:27AM 52.0579 -16.1278 113° Southeast  Level FlightAware Approximate
04:28AM 52.0013 -15.9162 113° Southeast  Level FlightAware Approximate
04:29AM 51.9442 -15.7051 114° Southeast  Level FlightAware Approximate
04:30AM 51.8869 -15.4946 114° Southeast  Level FlightAware Approximate
04:31AM 51.8291 -15.2846 114° Southeast  Level FlightAware Approximate
04:32AM 51.7710 -15.0752 114° Southeast  Level FlightAware Approximate
04:33AM 51.7117 -14.8669 115° Southeast  Level FlightAware Approximate
04:34AM 51.6515 -14.6595 115° Southeast  Level FlightAware Approximate
04:35AM 51.5910 -14.4526 115° Southeast  Level FlightAware Approximate
04:36AM 51.5301 -14.2464 115° Southeast  Level FlightAware Approximate
04:37AM 51.4688 -14.0406 115° Southeast  Level FlightAware Approximate
04:38AM 51.4087 -13.8343 115° Southeast  Level FlightAware Approximate
04:39AM 51.3484 -13.6288 115° Southeast  Level FlightAware Approximate
04:40AM 51.2877 -13.4239 115° Southeast  Level FlightAware Approximate
04:41AM 51.2267 -13.2195 115° Southeast  Level FlightAware Approximate
04:42AM 51.1653 -13.0157 116° Southeast  Level FlightAware Approximate
04:43AM 51.1035 -12.8124 116° Southeast  Level FlightAware Approximate
04:44AM 51.0414 -12.6097 116° Southeast  Level FlightAware Approximate
04:45AM 50.9803 -12.4064 115° Southeast  Level FlightAware Approximate
04:46AM 50.9190 -12.2036 116° Southeast  Level FlightAware Approximate
04:47AM 50.8574 -12.0013 116° Southeast  Level FlightAware Approximate
04:48AM 50.7954 -11.7995 116° Southeast  Level FlightAware Approximate
04:49AM 50.7331 -11.5983 116° Southeast  Level FlightAware Approximate
04:50AM 50.6704 -11.3976 116° Southeast  Level FlightAware Approximate
04:50AM 50.6710 -10.9520 116° Southeast 528 608 35,000  Level FlightAware
04:50AM 50.6260 -10.8340 121° Southeast 526 605 35,000  Level FlightAware
04:51AM 50.6074 -11.1974 116° Southeast  Level FlightAware Approximate
04:51AM 50.5530 -10.6540 123° Southeast 520 598 35,000  Level FlightAware
04:52AM 50.4880 -10.4920 122° Southeast 518 596 35,000  Level FlightAware
04:53AM 50.4350 -10.3620 123° Southeast 516 594 35,000  Level FlightAware
04:54AM 50.3840 -10.2340 122° Southeast 515 593 35,000  Level FlightAware
04:54AM 50.3410 -10.1260 122° Southeast 515 593 35,000  Level FlightAware
04:55AM 50.2740 -9.9710 124° Southeast 512 589 35,000  Level FlightAware
04:56AM 50.2220 -9.8450 123° Southeast 512 589 35,000  Level FlightAware
04:56AM 50.1650 -9.7080 123° Southeast 512 589 35,000  Level FlightAware
04:57AM 50.1060 -9.5660 123° Southeast 512 589 35,000  Level FlightAware
04:58AM 50.0540 -9.4420 123° Southeast 511 588 35,000  Level FlightAware
04:58AM 50.0030 -9.3210 123° Southeast 512 589 35,000  Level FlightAware
04:59AM 49.9540 -9.2050 123° Southeast 512 589 35,000 -1,200 Level FlightAware
05:00AM 49.9142 -8.9878 123° Southeast 480 552 33,500  Descending FlightAware UK
05:00AM 49.8930 -9.0630 123° Southeast 513 590 35,000  Climbing FlightAware
05:00AM 49.8757 -8.8945 123° Southeast 478 550 33,500 -2,400 Descending FlightAware UK
05:01AM 49.8526 -8.8386 123° Southeast 478 550 33,500 3,600 Level FlightAware UK
05:01AM 49.8320 -8.9210 123° Southeast 513 590 35,000  Climbing FlightAware
05:01AM 49.8218 -8.7641 123° Southeast 478 550 33,500 -2,580 Descending FlightAware UK
05:01AM 49.7986 -8.7082 123° Southeast 478 550 33,500 3,900 Level FlightAware UK
05:01AM 49.7800 -8.8010 123° Southeast 514 592 35,000  Climbing FlightAware
05:02AM 49.7675 -8.6337 123° Southeast 480 552 33,500 -2,460 Descending FlightAware UK
05:02AM 49.7442 -8.5779 123° Southeast 480 552 33,500 3,420 Level FlightAware UK
05:02AM 49.7220 -8.6660 123° Southeast 514 592 35,000  Climbing FlightAware
05:02AM 49.7130 -8.5035 123° Southeast 482 555 33,500 -2,700 Descending FlightAware UK
05:03AM 49.6895 -8.4477 123° Southeast 482 555 33,500 3,720 Level FlightAware UK
05:03AM 49.6680 -8.5410 123° Southeast 515 593 35,000  Climbing FlightAware
05:03AM 49.6583 -8.3732 123° Southeast 478 550 33,500 -2,520 Descending FlightAware UK
05:03AM 49.6349 -8.3173 123° Southeast 480 552 33,500 4,080 Level FlightAware UK
05:03AM 49.6140 -8.4170 123° Southeast 515 593 35,000  Climbing FlightAware
05:04AM 49.6036 -8.2430 123° Southeast 482 555 33,500 -2,400 Descending FlightAware UK
05:04AM 49.5799 -8.1873 123° Southeast 482 555 33,500 3,600 Level FlightAware UK
05:04AM 49.5540 -8.2820 123° Southeast 515 593 35,000  Climbing FlightAware
05:04AM 49.5483 -8.1133 123° Southeast 482 555 33,500 -2,580 Descending FlightAware UK
05:05AM 49.5246 -8.0579 123° Southeast 482 555 33,500 3,900 Level FlightAware UK
05:05AM 49.5020 -8.1600 123° Southeast 514 592 35,000  Climbing FlightAware
05:05AM 49.5007 -7.9770 123° Southeast 480 552 33,500 -2,460 Descending FlightAware UK
05:05AM 49.4825 -7.9176 115° Southeast 480 552 33,500 4,260 Level FlightAware UK
05:05AM 49.4600 -8.0290 115° Southeast 512 589 35,000  Climbing FlightAware
05:06AM 49.4630 -7.8588 115° Southeast 480 552 33,500 -2,760 Descending FlightAware UK
05:06AM 49.4436 -7.8001 117° Southeast 480 552 33,500 3,000 Level FlightAware UK
05:06AM 49.4120 -7.8860 117° Southeast 511 588 35,000  Climbing FlightAware
05:07AM 49.4114 -7.7020 117° Southeast 478 550 33,500 -2,520 Descending FlightAware UK
05:07AM 49.3922 -7.6431 117° Southeast 478 550 33,500 4,080 Level FlightAware UK
05:07AM 49.3690 -7.7570 117° Southeast 512 589 35,000  Climbing FlightAware
05:07AM 49.3669 -7.5646 117° Southeast 478 550 33,500 -2,400 Descending FlightAware UK
05:08AM 49.3480 -7.5055 116° Southeast 476 548 33,500 3,600 Level FlightAware UK
05:08AM 49.3200 -7.6100 116° Southeast 512 589 35,000  Climbing FlightAware
05:08AM 49.3232 -7.4264 116° Southeast 476 548 33,500 -2,580 Descending FlightAware UK
05:08AM 49.3045 -7.3671 116° Southeast 478 550 33,500 3,900 Level FlightAware UK
05:08AM 49.2770 -7.4810 116° Southeast 514 592 35,000  Climbing FlightAware
05:09AM 49.2794 -7.2881 116° Southeast 478 550 33,500 -2,460 Descending FlightAware UK
05:09AM 49.2605 -7.2289 116° Southeast 478 550 33,500 3,420 Level FlightAware UK
05:09AM 49.2310 -7.3420 116° Southeast 516 594 35,000  Climbing FlightAware
05:09AM 49.2351 -7.1499 116° Southeast 480 552 33,500 -2,700 Descending FlightAware UK
05:10AM 49.2158 -7.0907 116° Southeast 476 548 33,500 3,720 Level FlightAware UK
05:10AM 49.1850 -7.2060 116° Southeast 519 597 35,000  Climbing FlightAware
05:10AM 49.1901 -7.0116 116° Southeast 476 548 33,500 -2,520 Descending FlightAware UK
05:10AM 49.1708 -6.9521 116° Southeast 478 550 33,500 4,080 Level FlightAware UK
05:10AM 49.1410 -7.0740 116° Southeast 522 601 35,000  Climbing FlightAware
05:11AM 49.1446 -6.8720 116° Southeast 478 550 33,500 -2,400 Descending FlightAware UK
05:11AM 49.1247 -6.8122 117° Southeast 480 552 33,500 3,600 Level FlightAware UK
05:11AM 49.0900 -6.9230 117° Southeast 525 604 35,000  Climbing FlightAware
05:11AM 49.0982 -6.7321 117° Southeast 480 552 33,500 -2,580 Descending FlightAware UK
05:12AM 49.0783 -6.6720 117° Southeast 480 552 33,500 3,900 Level FlightAware UK
05:12AM 49.0450 -6.7940 117° Southeast 528 608 35,000  Climbing FlightAware
05:12AM 49.0516 -6.5917 117° Southeast 482 555 33,500 -2,460 Descending FlightAware UK
05:12AM 49.0316 -6.5313 117° Southeast 484 557 33,500 3,420 Level FlightAware UK
05:13AM 48.9960 -6.6480 117° Southeast 530 610 35,000  Climbing FlightAware
05:13AM 49.0049 -6.4508 117° Southeast 486 559 33,500 -2,700 Descending FlightAware UK
05:13AM 48.9847 -6.3904 117° Southeast 488 562 33,500 3,720 Level FlightAware UK
05:13AM 48.9500 -6.5150 117° Southeast 532 612 35,000  Climbing FlightAware
05:14AM 48.9575 -6.3100 117° Southeast 488 562 33,500 -2,520 Descending FlightAware UK
05:14AM 48.9372 -6.2496 117° Southeast 490 564 33,500 4,080 Level FlightAware UK
05:14AM 48.9040 -6.3830 117° Southeast 532 612 35,000  Climbing FlightAware
05:14AM 48.9101 -6.1693 117° Southeast 490 564 33,500 -2,400 Descending FlightAware UK
05:15AM 48.8897 -6.1090 117° Southeast 492 566 33,500 3,600 Level FlightAware UK
05:15AM 48.8510 -6.2300 117° Southeast 531 611 35,000  Climbing FlightAware
05:15AM 48.8626 -6.0288 117° Southeast 498 573 33,500 -2,580 Descending FlightAware UK
05:15AM 48.8422 -5.9690 117° Southeast 496 571 33,500 3,900 Level FlightAware UK
05:15AM 48.8050 -6.0990 117° Southeast 526 605 35,000  Climbing FlightAware
05:16AM 48.8082 -5.8703 117° Southeast 492 566 33,500  Descending FlightAware UK
05:16AM 48.7550 -5.9560 117° Southeast 520 598 35,000  Climbing FlightAware
05:16AM 48.7682 -5.7534 117° Southeast 490 564 33,500  Descending FlightAware UK
05:17AM 48.7120 -5.8310 117° Southeast 517 595 35,000  Climbing FlightAware
05:17AM 48.7217 -5.6186 117° Southeast 486 559 33,500 -2,520 Descending FlightAware UK
05:17AM 48.7019 -5.5607 117° Southeast 486 559 33,500 4,080 Level FlightAware UK
05:17AM 48.6670 -5.7050 117° Southeast 515 593 35,000  Climbing FlightAware
05:18AM 48.6753 -5.4837 117° Southeast 486 559 33,500 -2,400 Descending FlightAware UK
05:18AM 48.6554 -5.4262 118° Southeast 484 557 33,500 3,600 Level FlightAware UK
05:18AM 48.6160 -5.5600 118° Southeast 513 590 35,000  Climbing FlightAware
05:18AM 48.6288 -5.3499 118° Southeast 482 555 33,500 -2,580 Descending FlightAware UK
05:19AM 48.6088 -5.2928 118° Southeast 482 555 33,500 3,900 Level FlightAware UK
05:19AM 48.5720 -5.4340 118° Southeast 511 588 35,000  Climbing FlightAware
05:19AM 48.5821 -5.2168 118° Southeast 478 550 33,500  Descending FlightAware UK
05:20AM 48.5200 -5.2900 118° Southeast 513 590 35,000  Climbing FlightAware
05:20AM 48.5354 -5.0838 118° Southeast 486 559 33,500 -2,700 Descending FlightAware UK
05:20AM 48.5153 -5.0272 118° Southeast 486 559 33,500 3,720 Level FlightAware UK
05:20AM 48.4750 -5.1640 118° Southeast 512 589 35,000  Climbing FlightAware
05:21AM 48.4884 -4.9516 118° Southeast 484 557 33,500 -2,520 Descending FlightAware UK
05:21AM 48.4682 -4.8950 118° Southeast 482 555 33,500 4,080 Level FlightAware UK
05:21AM 48.4300 -5.0370 118° Southeast 512 589 35,000  Climbing FlightAware
05:21AM 48.4413 -4.8195 118° Southeast 484 557 33,500 -2,400 Descending FlightAware UK
05:22AM 48.4211 -4.7629 118° Southeast 482 555 33,500 3,600 Level FlightAware UK
05:22AM 48.3800 -4.8990 118° Southeast 512 589 35,000  Climbing FlightAware
05:22AM 48.3942 -4.6874 118° Southeast 484 557 33,500 -2,580 Descending FlightAware UK
05:22AM 48.3740 -4.6306 118° Southeast 482 555 33,500 3,900 Level FlightAware UK
05:22AM 48.3340 -4.7720 118° Southeast 513 590 35,000  Climbing FlightAware
05:23AM 48.3470 -4.5552 118° Southeast 482 555 33,500 -2,460 Descending FlightAware UK
05:23AM 48.3266 -4.4988 119° Southeast 482 555 33,500 3,420 Level FlightAware UK
05:23AM 48.2830 -4.6300 119° Southeast 513 590 35,000  Climbing FlightAware
05:23AM 48.2995 -4.4235 119° Southeast 482 555 33,500 -2,700 Descending FlightAware UK
05:24AM 48.2791 -4.3671 118° Southeast 482 555 33,500 3,720 Level FlightAware UK
05:24AM 48.2380 -4.5050 118° Southeast 515 593 35,000  Climbing FlightAware
05:24AM 48.2448 -4.2727 118° Southeast 482 555 33,500  Descending FlightAware UK
05:24AM 48.1920 -4.3780 118° Southeast 516 594 35,000 1,500 Climbing FlightAware
05:25AM 48.1420 -4.2400 118° Southeast 519 597 35,000  Level FlightAware
05:26AM 48.0960 -4.1130 118° Southeast 520 598 35,000  Level FlightAware
05:27AM 48.0430 -3.9670 118° Southeast 523 602 35,000  Level FlightAware
05:27AM 47.9960 -3.8390 119° Southeast 525 604 35,000  Level FlightAware
05:28AM 47.9490 -3.7130 119° Southeast 527 606 35,000  Level FlightAware
05:29AM 47.8980 -3.5750 119° Southeast 527 606 35,000  Level FlightAware
05:29AM 47.8430 -3.4280 119° Southeast 524 603 35,000  Level FlightAware
05:30AM 47.7970 -3.3040 119° Southeast 522 601 35,000  Level FlightAware
05:31AM 47.7500 -3.1800 119° Southeast 519 597 35,000  Level FlightAware
05:31AM 47.7030 -3.0550 119° Southeast 519 597 35,000  Level FlightAware
05:32AM 47.6510 -2.9180 119° Southeast 518 596 35,000  Level FlightAware
05:33AM 47.6040 -2.7930 119° Southeast 517 595 35,000  Level FlightAware
05:34AM 47.5500 -2.6510 119° Southeast 517 595 35,000  Level FlightAware
05:34AM 47.5030 -2.5270 119° Southeast 519 597 35,000  Level FlightAware
05:35AM 47.4560 -2.4080 120° Southeast 520 598 35,000  Level FlightAware
05:36AM 47.4010 -2.2670 120° Southeast 521 600 35,000  Level FlightAware
05:36AM 47.3520 -2.1450 121° Southeast 523 602 35,000  Level FlightAware
05:37AM 47.3020 -2.0060 118° Southeast 524 603 35,000  Level FlightAware
05:38AM 47.2530 -1.8820 120° Southeast 525 604 35,000  Level FlightAware
05:38AM 47.2040 -1.7570 120° Southeast 524 603 35,000  Level FlightAware
05:39AM 47.1490 -1.6160 120° Southeast 524 603 35,000  Level FlightAware
05:40AM 47.0960 -1.4780 119° Southeast 525 604 35,000  Level FlightAware
05:40AM 47.0540 -1.3690 119° Southeast 525 604 35,000  Level FlightAware
05:41AM 47.0030 -1.2290 118° Southeast 526 605 35,000  Level FlightAware
05:42AM 46.9620 -1.0990 115° Southeast 526 605 35,000  Level FlightAware
05:43AM 46.9150 -0.9520 115° Southeast 526 605 35,000  Level FlightAware
05:43AM 46.8800 -0.8470 116° Southeast 526 605 35,000  Level FlightAware
05:44AM 46.8390 -0.7220 116° Southeast 527 606 35,000  Level FlightAware
05:47AM 46.7359 -0.1991 106° East  Level Estimated
05:47AM 46.6250 -0.0730 106° East 525 604 35,000  Level FlightAware
05:48AM 46.5800 0.0600 116° Southeast 522 601 35,000  Level FlightAware
05:49AM 46.5300 0.2120 116° Southeast 523 602 35,000  Level FlightAware
05:50AM 46.4780 0.3630 117° Southeast 35,000  Level FlightAware
05:51AM 46.4040 0.5810 116° Southeast 524 603 35,000  Level FlightAware
05:51AM 46.3640 0.7050 115° Southeast 524 603 35,000  Level FlightAware
05:52AM 46.3290 0.8130 115° Southeast 524 603 35,000  Level FlightAware
05:53AM 46.2940 0.9220 115° Southeast 524 603 35,000  Level FlightAware
05:55AM 46.2240 1.2565 107° East  Level Estimated
05:56AM 46.1828 1.4510 107° East  Level Estimated
05:56AM 46.0330 1.6490 107° East 529 609 35,000  Level FlightAware
05:57AM 45.9930 1.7580 118° Southeast 528 608 35,000  Level FlightAware
05:58AM 45.9350 1.9180 117° Southeast 528 608 35,000  Level FlightAware
05:58AM 45.8900 2.0420 118° Southeast 526 605 35,000  Level FlightAware
05:59AM 45.8440 2.1680 118° Southeast 526 605 35,000  Level FlightAware
06:00AM 45.7940 2.3030 118° Southeast 525 604 35,000  Level FlightAware
06:01AM 45.7480 2.4300 117° Southeast 524 603 35,000  Level FlightAware
06:01AM 45.7030 2.5490 118° Southeast 523 602 35,000  Level FlightAware
06:02AM 45.6520 2.6870 118° Southeast 525 604 35,000  Level FlightAware
06:03AM 45.6090 2.8020 118° Southeast 525 604 35,000  Level FlightAware
06:03AM 45.5700 2.9070 118° Southeast 525 604 35,000  Level FlightAware
06:04AM 45.5310 3.0110 118° Southeast 525 604 35,000  Level FlightAware
06:05AM 45.4830 3.1410 118° Southeast 525 604 35,000  Level FlightAware
06:05AM 45.4130 3.3120 120° Southeast 519 597 35,000  Level FlightAware
06:06AM 45.3440 3.4880 119° Southeast 524 603 35,000  Level FlightAware
06:07AM 45.2910 3.6200 120° Southeast 522 601 35,000  Level FlightAware
06:08AM 45.2490 3.7210 121° Southeast 521 600 35,000  Level FlightAware
06:09AM 45.1920 3.8620 120° Southeast 522 601 35,000  Level FlightAware
06:09AM 45.1510 3.9630 120° Southeast 522 601 35,000  Level FlightAware
06:10AM 45.0570 4.1880 121° Southeast 35,000  Level FlightAware
06:11AM 45.0060 4.3090 121° Southeast 515 593 35,000  Level FlightAware
06:12AM 44.9510 4.4410 120° Southeast 513 590 35,000  Level FlightAware
06:12AM 44.9020 4.5580 121° Southeast 510 587 35,000  Level FlightAware
06:13AM 44.8540 4.6710 121° Southeast 512 589 35,000  Level FlightAware
06:14AM 44.8050 4.7860 121° Southeast 513 590 35,000  Level FlightAware
06:15AM 44.7480 4.9170 121° Southeast 513 590 35,000  Level FlightAware
06:15AM 44.6940 5.0440 121° Southeast 514 592 35,000  Level FlightAware
06:16AM 44.6450 5.1530 122° Southeast 514 592 35,000  Level FlightAware
06:17AM 44.5840 5.2880 122° Southeast 516 594 35,000  Level FlightAware
06:17AM 44.5310 5.4030 123° Southeast 517 595 35,000  Level FlightAware
06:18AM 44.4800 5.5140 123° Southeast 518 596 35,000  Level FlightAware
06:19AM 44.4220 5.6400 123° Southeast 519 597 35,000  Level FlightAware
06:19AM 44.3700 5.7530 123° Southeast 519 597 35,000  Level FlightAware
06:20AM 44.3100 5.8820 123° Southeast 518 596 35,000  Level FlightAware
06:21AM 44.2560 5.9960 123° Southeast 522 601 35,000  Level FlightAware
06:22AM 44.2040 6.1070 123° Southeast 522 601 35,000  Level FlightAware
06:22AM 44.1450 6.2330 123° Southeast 518 596 35,000  Level FlightAware
06:23AM 44.0920 6.3460 123° Southeast 523 602 35,000  Level FlightAware
06:24AM 44.0360 6.4640 123° Southeast 524 603 35,000  Level FlightAware
06:24AM 43.9800 6.5840 123° Southeast 521 600 35,000  Level FlightAware
06:25AM 43.9030 6.7230 128° Southeast 523 602 35,000  Level FlightAware
06:26AM 43.8310 6.8330 132° Southeast 524 603 35,000  Level FlightAware
06:27AM 43.7580 6.9460 132° Southeast 526 605 35,000  Level FlightAware
06:27AM 43.6920 7.0490 132° Southeast 526 605 35,000  Level FlightAware
06:28AM 43.6220 7.1540 133° Southeast 526 605 35,000  Level FlightAware
06:29AM 43.5550 7.2560 132° Southeast 526 605 35,000  Level FlightAware
06:30AM 43.4800 7.3720 132° Southeast 526 605 35,000  Level FlightAware
06:30AM 43.4180 7.4800 128° Southeast 532 612 35,000  Level FlightAware
06:31AM 43.3600 7.6070 122° Southeast 536 617 35,000  Level FlightAware
06:32AM 43.3080 7.7250 121° Southeast 537 618 35,000  Level FlightAware
06:32AM 43.2570 7.8420 121° Southeast 540 621 35,000  Level FlightAware
06:33AM 43.1980 7.9760 121° Southeast 542 624 35,000  Level FlightAware
06:34AM 43.1460 8.0930 121° Southeast 543 625 35,000  Level FlightAware
06:34AM 43.0940 8.2100 121° Southeast 545 627 35,000  Level FlightAware
06:35AM 43.0350 8.3420 121° Southeast 545 627 35,000  Level FlightAware
06:36AM 42.9860 8.4520 121° Southeast 541 623 35,000  Level FlightAware
06:36AM 42.9320 8.5720 122° Southeast 540 621 35,000  Level FlightAware
06:37AM 42.8740 8.7010 121° Southeast 540 621 35,000  Level FlightAware
06:38AM 42.8200 8.8220 121° Southeast 540 621 35,000  Level FlightAware
06:39AM 42.7620 8.9500 122° Southeast 539 620 35,000  Level FlightAware
06:39AM 42.7100 9.0670 121° Southeast 539 620 35,000  Level FlightAware
06:40AM 42.6570 9.1840 122° Southeast 538 619 35,000  Level FlightAware
06:41AM 42.5990 9.3120 122° Southeast 536 617 35,000  Level FlightAware
06:41AM 42.5500 9.4210 121° Southeast 535 616 35,000  Level FlightAware
06:42AM 42.4890 9.5560 121° Southeast 536 617 35,000  Level FlightAware
06:43AM 42.4340 9.6760 122° Southeast 537 618 35,000  Level FlightAware
06:43AM 42.3810 9.7910 122° Southeast 536 617 35,000  Level FlightAware
06:44AM 42.3220 9.9190 122° Southeast 534 615 35,000  Level FlightAware
06:45AM 42.2700 10.0340 121° Southeast 533 613 35,000  Level FlightAware
06:46AM 42.2150 10.1640 120° Southeast 532 612 35,000  Level FlightAware
06:46AM 42.1680 10.2830 118° Southeast 535 616 35,000  Level FlightAware
06:47AM 42.1180 10.4170 117° Southeast 534 615 35,000  Level FlightAware
06:48AM 42.0740 10.5360 116° Southeast 535 616 35,000  Level FlightAware
06:48AM 42.0230 10.6690 117° Southeast 536 617 35,000  Level FlightAware
06:49AM 41.9790 10.7870 117° Southeast 537 618 35,000  Level FlightAware
06:50AM 41.9280 10.9220 117° Southeast 538 619 35,000 60 Level FlightAware
06:50AM 41.8890 11.0260 117° Southeast 533 613 35,100 360 Climbing FlightAware
06:51AM 41.8380 11.1580 117° Southeast 525 604 35,500 600 Climbing FlightAware
06:52AM 41.7950 11.2720 117° Southeast 518 596 36,000 660 Climbing FlightAware
06:53AM 41.7450 11.4020 117° Southeast 524 603 36,500 600 Climbing FlightAware
06:53AM 41.7010 11.5170 117° Southeast 530 610 36,900 300 Climbing FlightAware
06:54AM 41.6500 11.6500 117° Southeast 535 616 37,000 60 Climbing FlightAware
06:55AM 41.6040 11.7670 118° Southeast 535 616 37,000  Level FlightAware
06:55AM 41.5580 11.8850 117° Southeast 535 616 37,000  Level FlightAware
06:56AM 41.5080 12.0160 117° Southeast 532 612 37,000  Level FlightAware
06:57AM 41.4550 12.1510 118° Southeast 533 613 37,000  Level FlightAware
06:59AM 41.3753 12.4385 110° East  Level Estimated
07:00AM 41.3261 12.6143 110° East  Level Estimated
07:01AM 41.2766 12.7897 111° Southeast  Level Estimated
07:02AM 41.2269 12.9649 111° Southeast  Level Estimated
07:03AM 41.1769 13.1398 111° Southeast  Level Estimated
07:04AM 41.1267 13.3144 111° Southeast  Level Estimated
07:05AM 41.0762 13.4888 111° Southeast  Level Estimated
07:05AM 40.8180 13.5680 111° Southeast 541 623 37,000  Level FlightAware
07:06AM 40.7560 13.6950 123° Southeast 541 623 37,000  Level FlightAware
07:07AM 40.7020 13.8060 123° Southeast 538 619 37,000  Level FlightAware
07:07AM 40.6440 13.9260 122° Southeast 537 618 37,000  Level FlightAware
07:08AM 40.5890 14.0390 123° Southeast 537 618 37,000  Level FlightAware
07:09AM 40.5350 14.1480 123° Southeast 538 619 37,000  Level FlightAware
07:09AM 40.4810 14.2590 123° Southeast 540 621 37,000  Level FlightAware
07:10AM 40.4190 14.3830 123° Southeast 539 620 37,000  Level FlightAware
07:11AM 40.3590 14.5040 123° Southeast 539 620 37,000  Level FlightAware
07:12AM 40.3040 14.6140 123° Southeast 541 623 37,000  Level FlightAware
07:12AM 40.2490 14.7240 123° Southeast 541 623 37,000  Level FlightAware
07:13AM 40.1860 14.8510 123° Southeast 541 623 37,000  Level FlightAware
07:14AM 40.1300 14.9600 124° Southeast 540 621 37,000  Level FlightAware
07:14AM 40.0760 15.0670 123° Southeast 540 621 37,000  Level FlightAware
07:15AM 40.0160 15.1850 124° Southeast 540 621 37,000  Level FlightAware
07:16AM 39.9590 15.2930 125° Southeast 539 620 37,000  Level FlightAware
07:16AM 39.8940 15.4190 124° Southeast 538 619 37,000  Level FlightAware
07:17AM 39.8380 15.5270 124° Southeast 535 616 37,000  Level FlightAware
07:18AM 39.7850 15.6300 124° Southeast 532 612 37,000  Level FlightAware
07:19AM 39.7250 15.7450 124° Southeast 530 610 37,000  Level FlightAware
07:19AM 39.6680 15.8520 125° Southeast 528 608 37,000  Level FlightAware
07:20AM 39.6040 15.9740 124° Southeast 528 608 37,000  Level FlightAware
07:21AM 39.5490 16.0800 124° Southeast 528 608 37,000  Level FlightAware
07:21AM 39.4940 16.1820 125° Southeast 530 610 37,000  Level FlightAware
07:22AM 39.4500 16.2640 125° Southeast 530 610 37,000  Level FlightAware
07:23AM 39.3770 16.4010 125° Southeast 530 610 37,000  Level FlightAware
07:23AM 39.3360 16.5150 115° Southeast 529 609 37,000  Level FlightAware
07:24AM 39.2930 16.6500 112° Southeast 528 608 37,000  Level FlightAware
07:25AM 39.2620 16.7500 112° Southeast 528 608 37,000  Level FlightAware
07:26AM 39.2170 16.8970 112° Southeast 526 605 37,000  Level FlightAware
07:26AM 39.1840 17.0090 111° Southeast 527 606 37,000  Level FlightAware
07:27AM 39.1580 17.0890 113° Southeast 529 609 37,000  Level FlightAware
07:28AM 39.1150 17.2250 112° Southeast 528 608 37,000  Level FlightAware
07:28AM 39.0800 17.3390 112° Southeast 527 606 37,000  Level FlightAware
07:29AM 39.0390 17.4680 112° Southeast 527 606 37,000  Level FlightAware
07:30AM 39.0000 17.5920 112° Southeast 526 605 37,000  Level FlightAware
07:30AM 38.9600 17.7170 112° Southeast 526 605 37,000  Level FlightAware
07:31AM 38.9250 17.8280 112° Southeast 523 602 37,000  Level FlightAware
07:32AM 38.8860 17.9490 112° Southeast 522 601 37,000  Level FlightAware
07:32AM 38.8500 18.0600 113° Southeast 522 601 37,000  Level FlightAware
07:33AM 38.8060 18.1960 113° Southeast 522 601 37,000  Level FlightAware
07:34AM 38.7600 18.3410 112° Southeast 521 600 37,000  Level FlightAware
07:35AM 38.7130 18.4840 113° Southeast 522 601 37,000  Level FlightAware
07:36AM 38.6750 18.5990 113° Southeast 521 600 37,000  Level FlightAware
07:36AM 38.6390 18.7090 113° Southeast 523 602 37,000  Level FlightAware
07:37AM 38.5970 18.8360 113° Southeast 525 604 37,000  Level FlightAware
07:38AM 38.5530 18.9720 112° Southeast 525 604 37,000  Level FlightAware
07:39AM 38.5220 19.0700 112° Southeast 525 604 37,000  Level FlightAware
07:39AM 38.4750 19.2220 112° Southeast 521 600 37,000  Level FlightAware
07:40AM 38.4290 19.3660 112° Southeast 518 596 37,000  Level FlightAware
07:41AM 38.3990 19.4600 112° Southeast 517 595 37,000  Level FlightAware
07:41AM 38.3580 19.5860 113° Southeast 514 592 37,000  Level FlightAware
07:42AM 38.3260 19.6860 112° Southeast 513 590 37,000  Level FlightAware
07:43AM 38.2820 19.8230 112° Southeast 512 589 37,000  Level FlightAware
07:44AM 38.2370 19.9630 112° Southeast 512 589 37,000  Level FlightAware
07:44AM 38.1800 20.1340 113° Southeast 514 592 37,000  Level FlightAware
07:45AM 38.1410 20.2520 113° Southeast 514 592 37,000  Level FlightAware
07:46AM 38.0950 20.3940 112° Southeast 514 592 37,000  Level FlightAware
07:47AM 38.0540 20.5140 113° Southeast 515 593 37,000  Level FlightAware
07:47AM 38.0130 20.6360 113° Southeast 516 594 37,000  Level FlightAware
07:48AM 37.9750 20.7490 113° Southeast 515 593 37,000  Level FlightAware
07:49AM 37.9380 20.8590 113° Southeast 514 592 37,000  Level FlightAware
07:50AM 37.8940 20.9860 114° Southeast 514 592 37,000  Level FlightAware
07:50AM 37.8520 21.1100 113° Southeast 512 589 37,000  Level FlightAware
07:51AM 37.8150 21.2180 113° Southeast 510 587 37,000  Level FlightAware
07:52AM 37.7780 21.3250 114° Southeast 510 587 37,000  Level FlightAware
07:52AM 37.7340 21.4520 114° Southeast 509 586 37,000  Level FlightAware
07:53AM 37.6960 21.5620 114° Southeast 508 585 37,000  Level FlightAware
07:54AM 37.6550 21.6810 113° Southeast 509 586 37,000  Level FlightAware
07:54AM 37.6160 21.7910 114° Southeast 508 585 37,000  Level FlightAware
07:55AM 37.5790 21.8960 114° Southeast 509 586 37,000  Level FlightAware
07:56AM 37.5340 22.0240 114° Southeast 507 583 37,000  Level FlightAware
07:57AM 37.4970 22.1300 114° Southeast 507 583 37,000  Level FlightAware
07:57AM 37.4540 22.2450 115° Southeast 509 586 37,000  Level FlightAware
07:58AM 37.3990 22.3480 124° Southeast 511 588 37,000  Level FlightAware
07:59AM 37.3370 22.4560 126° Southeast 510 587 37,000  Level FlightAware
07:59AM 37.2800 22.5530 126° Southeast 509 586 37,000  Level FlightAware
08:00AM 37.2210 22.6550 126° Southeast 508 585 37,000  Level FlightAware
08:01AM 37.1650 22.7490 127° Southeast 507 583 37,000  Level FlightAware
08:01AM 37.1070 22.8460 127° Southeast 506 582 37,000  Level FlightAware
08:02AM 37.0440 22.9540 126° Southeast 507 583 37,000  Level FlightAware
08:03AM 36.9870 23.0500 127° Southeast 512 589 37,000  Level FlightAware
08:04AM 36.9250 23.1540 127° Southeast 513 590 37,000  Level FlightAware
08:04AM 36.8670 23.2510 127° Southeast 513 590 37,000  Level FlightAware
08:05AM 36.8160 23.3490 123° Southeast 512 589 37,000  Level FlightAware
08:06AM 36.7720 23.4530 118° Southeast 512 589 37,000  Level FlightAware
08:06AM 36.7200 23.5740 118° Southeast 514 592 37,000  Level FlightAware
08:07AM 36.6740 23.6800 118° Southeast 515 593 37,000  Level FlightAware
08:08AM 36.6320 23.7790 118° Southeast 517 595 37,000  Level FlightAware
08:08AM 36.5790 23.9030 118° Southeast 517 595 37,000  Level FlightAware
08:09AM 36.5330 24.0120 118° Southeast 518 596 37,000  Level FlightAware
08:10AM 36.4850 24.1210 119° Southeast 518 596 37,000  Level FlightAware
08:11AM 36.4400 24.2270 118° Southeast 518 596 37,000  Level FlightAware
08:11AM 36.4000 24.3200 118° Southeast 519 597 37,000  Level FlightAware
08:12AM 36.3420 24.4530 118° Southeast 519 597 37,000  Level FlightAware
08:13AM 36.3070 24.5340 118° Southeast 520 598 37,000  Level FlightAware
08:13AM 36.2490 24.6660 119° Southeast 520 598 37,000  Level FlightAware
08:14AM 36.1920 24.7970 118° Southeast 521 600 37,000  Level FlightAware
08:15AM 36.1240 24.9520 118° Southeast 523 602 37,000  Level FlightAware
08:16AM 36.0830 25.0470 118° Southeast 524 603 37,000  Level FlightAware
08:17AM 36.0260 25.1730 119° Southeast 528 608 37,000  Level FlightAware
08:17AM 35.9660 25.3100 118° Southeast 529 609 37,000  Level FlightAware
08:18AM 35.9270 25.4010 118° Southeast 529 609 37,000  Level FlightAware
08:19AM 35.8880 25.4920 118° Southeast 529 609 37,000  Level FlightAware
08:20AM 35.8390 25.6050 118° Southeast 529 609 37,000  Level FlightAware
08:20AM 35.8000 25.6960 118° Southeast 529 609 37,000  Level FlightAware
08:21AM 35.7610 25.7860 118° Southeast 529 609 37,000  Level FlightAware
08:22AM 35.7220 25.8770 118° Southeast 529 609 37,000  Level FlightAware
08:22AM 35.6830 25.9670 118° Southeast 529 609 37,000  Level FlightAware
08:23AM 35.6340 26.0800 118° Southeast 529 609 37,000  Level FlightAware
08:24AM 35.6050 26.1480 118° Southeast 529 609 37,000  Level FlightAware
08:24AM 35.5560 26.2610 118° Southeast 529 609 37,000  Level FlightAware
08:25AM 35.5170 26.3510 118° Southeast 529 609 37,000  Level FlightAware
08:26AM 35.4780 26.4410 118° Southeast 529 609 37,000  Level FlightAware
08:27AM 35.4290 26.5540 118° Southeast 529 609 37,000  Level FlightAware
08:29AM 35.3202 26.8535 114° Southeast  Level Estimated
08:30AM 35.2621 27.0122 114° Southeast  Level Estimated
08:31AM 35.2038 27.1707 114° Southeast  Level Estimated
08:32AM 35.1453 27.3290 114° Southeast  Level Estimated
08:32AM 34.8760 27.6820 114° Southeast 526 605 37,000  Level FlightAware
08:33AM 34.8340 27.7720 120° Southeast 527 606 37,000  Level FlightAware
08:34AM 34.7940 27.8600 119° Southeast 527 606 37,000  Level FlightAware
08:35AM 34.7440 27.9700 119° Southeast 527 606 37,000  Level FlightAware
08:35AM 34.7040 28.0590 119° Southeast 527 606 37,000  Level FlightAware
08:36AM 34.6080 28.2460 122° Southeast 529 609 37,000  Level FlightAware
08:37AM 34.5680 28.3350 119° Southeast 529 609 37,000  Level FlightAware
08:38AM 34.4910 28.4870 122° Southeast 534 615 37,000  Level FlightAware
08:38AM 34.4490 28.5740 120° Southeast 535 616 37,000  Level FlightAware
08:39AM 34.3870 28.7030 120° Southeast 535 616 37,000  Level FlightAware
08:40AM 34.3460 28.7890 120° Southeast 535 616 37,000  Level FlightAware
08:40AM 34.2930 28.9000 120° Southeast 535 616 37,000  Level FlightAware
08:41AM 34.2420 29.0000 122° Southeast 37,000  Level FlightAware
08:43AM 34.1080 29.2720 121° Southeast 534 615 37,000  Level FlightAware
08:43AM 34.0590 29.3730 120° Southeast 534 615 37,000  Level FlightAware
08:44AM 34.0170 29.4600 120° Southeast 534 615 37,000  Level FlightAware
08:45AM 33.9610 29.5710 121° Southeast 534 615 37,000  Level FlightAware
08:45AM 33.9010 29.6920 121° Southeast 534 615 37,000  Level FlightAware
08:46AM 33.8590 29.7790 120° Southeast 534 615 37,000  Level FlightAware
08:47AM 33.7740 29.9470 121° Southeast 533 613 37,000  Level FlightAware
08:48AM 33.7510 30.0380 107° East 532 612 37,000  Level FlightAware
08:49AM 33.7170 30.2020 104° East 531 611 37,000  Level FlightAware
08:49AM 33.6940 30.3170 103° East 531 611 37,000  Level FlightAware
08:50AM 33.6750 30.4110 104° East 532 612 37,000  Level FlightAware
08:51AM 33.6450 30.5600 104° East 534 615 37,000  Level FlightAware
08:51AM 33.6230 30.6730 103° East 535 616 37,000  Level FlightAware
08:52AM 33.5960 30.8060 104° East 537 618 37,000  Level FlightAware
08:53AM 33.5480 31.0490 103° East 538 619 37,000  Level FlightAware
08:54AM 33.5300 31.1360 104° East 538 619 37,000  Level FlightAware
08:55AM 33.5010 31.2790 104° East 540 621 37,000  Level FlightAware
08:56AM 33.4660 31.4540 103° East 538 619 37,000  Level FlightAware
08:56AM 33.4450 31.5530 104° East 527 606 37,000  Level FlightAware
08:57AM 33.4190 31.6820 104° East 526 605 37,000  Level FlightAware
08:58AM 33.3780 31.8760 104° East 520 598 37,000  Level FlightAware
08:59AM 33.3380 32.0740 104° East 514 592 37,000  Level FlightAware
09:00AM 33.3200 32.1650 103° East 511 588 37,000  Level FlightAware
09:01AM 33.2880 32.3210 104° East 509 586 37,000  Level FlightAware
09:02AM 33.2670 32.4200 104° East 506 582 37,000  Level FlightAware
09:02AM 33.2430 32.5340 104° East 506 582 37,000 -780 Level FlightAware
09:03AM 33.2180 32.6550 104° East 520 598 35,900 -1,500 Descending FlightAware
09:04AM 33.1910 32.7830 104° East 527 606 34,900 -1,320 Descending FlightAware
09:04AM 33.1630 32.8940 107° East 510 587 34,100 -1,860 Descending FlightAware
09:06AM 33.0830 33.0640 119° Southeast 488 562 31,500 -2,160 Descending FlightAware
09:06AM 33.0190 33.1900 121° Southeast 477 549 29,600 -2,220 Descending FlightAware
09:07AM 32.9800 33.2670 121° Southeast 473 544 28,200 -2,280 Descending FlightAware
09:08AM 32.9300 33.3640 122° Southeast 462 532 26,600 -2,100 Descending FlightAware
09:08AM 32.8920 33.4390 121° Southeast 451 519 25,400 -2,160 Descending FlightAware
09:09AM 32.8530 33.5160 121° Southeast 441 507 24,100 -1,920 Descending FlightAware
09:10AM 32.8070 33.6070 121° Southeast 422 486 22,900 -1,860 Descending FlightAware
09:10AM 32.7680 33.6820 122° Southeast 404 465 21,500 -2,280 Descending FlightAware
09:11AM 32.7250 33.7680 121° Southeast 390 449 19,700 -2,520 Descending FlightAware
09:12AM 32.6880 33.8400 121° Southeast 378 435 18,000 -2,220 Descending FlightAware
09:12AM 32.6560 33.9110 118° Southeast 352 405 16,800 -1,920 Descending FlightAware
09:13AM 32.6540 33.9260 99° East 352 405 16,400 -2,280 Descending FlightAware
09:13AM 32.6640 34.0090 82° East 345 397 14,900 -1,860 Descending FlightAware
09:14AM 32.6740 34.0910 82° East 340 391 13,800 -1,440 Descending FlightAware
09:15AM 32.6820 34.1460 80° East 336 387 13,100 -1,500 Descending FlightAware
09:15AM 32.6740 34.2050 99° East 313 360 12,200 -1,620 Descending FlightAware
09:16AM 32.6500 34.2370 132° Southeast 292 336 11,500 -1,500 Descending FlightAware
09:16AM 32.6330 34.2460 156° South 280 322 11,200 -1,200 Descending FlightAware
09:16AM 32.5860 34.2660 160° South 273 314 10,400 -1,320 Descending FlightAware
09:17AM 32.5540 34.2800 160° South 271 312 9,800 -600 Descending FlightAware
09:17AM 32.5180 34.2960 159° South 271 312 9,800  Level FlightAware
09:18AM 32.4990 34.3050 158° South 271 312 9,800  Level FlightAware
09:18AM 32.4790 34.3140 159° South 271 312 9,800  Level FlightAware
09:19AM 32.4490 34.3280 159° South 271 312 9,800 -2,520 Level FlightAware
09:19AM 32.3940 34.3550 157° South 260 299 7,100 -2,700 Descending FlightAware
09:20AM 32.3690 34.3660 160° South 260 299 7,100  Level FlightAware
09:20AM 32.3320 34.3830 159° South 263 303 7,100  Level FlightAware
09:21AM 32.3060 34.3960 157° South 263 303 7,100  Level FlightAware
09:23AM 32.1354 34.6529 132° Southeast  Level FlightAware Approximate
09:24AM 32.0488 34.7854 125° Southeast  Level FlightAware Approximate
09:25AM 32.0000 34.8667 125° Southeast  Level FlightAware Approximate
09:26AM 32.0095 34.8769 125° Southeast  Level Estimated
09:27AM 32.0095 34.8769 125° Southeast  Level Estimated
09:28AM 32.0095 34.8769 125° Southeast  Level Estimated
09:29AM 32.0095 34.8769 125° Southeast  Level Estimated
09:30AM 32.0095 34.8769 125° Southeast  Level Estimated
09:31AM 32.0095 34.8769 125° Southeast  Level Estimated